createdAt,value
2018-08-17T00:00:03.936Z,0
2018-08-17T00:00:44.503Z,0
2018-08-17T00:01:25.057Z,0
2018-08-17T00:02:05.628Z,0
2018-08-17T00:02:46.182Z,0
2018-08-17T00:03:26.743Z,0
2018-08-17T00:04:07.310Z,0
2018-08-17T00:04:47.869Z,0
2018-08-17T00:05:28.433Z,0
2018-08-17T00:06:09.042Z,0
2018-08-17T00:06:49.652Z,0
2018-08-17T00:07:30.239Z,0
2018-08-17T00:08:10.816Z,0
2018-08-17T00:08:51.387Z,0
2018-08-17T00:09:31.958Z,0
2018-08-17T00:10:12.529Z,0
2018-08-17T00:10:53.092Z,0
2018-08-17T00:11:33.670Z,0
2018-08-17T00:12:14.229Z,0
2018-08-17T00:12:54.802Z,0
2018-08-17T00:13:35.369Z,0
2018-08-17T00:14:15.926Z,0
2018-08-17T00:14:56.479Z,0
2018-08-17T00:15:37.090Z,0
2018-08-17T00:16:17.660Z,0
2018-08-17T00:16:58.241Z,0
2018-08-17T00:17:38.802Z,0
2018-08-17T00:18:19.377Z,0
2018-08-17T00:18:59.950Z,0
2018-08-17T00:19:40.538Z,0
2018-08-17T00:20:21.108Z,0
2018-08-17T00:21:01.729Z,0
2018-08-17T00:21:42.265Z,0
2018-08-17T00:22:22.821Z,0
2018-08-17T00:23:03.398Z,0
2018-08-17T00:23:44.000Z,0
2018-08-17T00:24:24.556Z,0
2018-08-17T00:25:05.121Z,0
2018-08-17T00:25:45.705Z,0
2018-08-17T00:26:26.295Z,0
2018-08-17T00:27:06.877Z,0
2018-08-17T00:27:47.453Z,0
2018-08-17T00:28:28.013Z,0
2018-08-17T00:29:08.562Z,0
2018-08-17T00:29:49.121Z,0
2018-08-17T00:30:29.693Z,0
2018-08-17T00:31:10.268Z,0
2018-08-17T00:31:50.835Z,0
2018-08-17T00:32:31.396Z,0
2018-08-17T00:33:11.972Z,0
2018-08-17T00:33:52.526Z,0
2018-08-17T00:34:33.108Z,0
2018-08-17T00:35:13.683Z,0
2018-08-17T00:35:54.293Z,0
2018-08-17T00:36:34.863Z,0
2018-08-17T00:37:15.480Z,0
2018-08-17T00:37:56.048Z,0
2018-08-17T00:38:36.666Z,0
2018-08-17T00:39:17.243Z,0
2018-08-17T00:39:57.815Z,0
2018-08-17T00:40:38.384Z,0
2018-08-17T00:41:18.956Z,0
2018-08-17T00:41:59.524Z,0
2018-08-17T00:42:40.088Z,0
2018-08-17T00:43:20.675Z,0
2018-08-17T00:44:01.239Z,0
2018-08-17T00:44:41.811Z,0
2018-08-17T00:45:22.396Z,0
2018-08-17T00:46:02.972Z,0
2018-08-17T00:46:43.558Z,0
2018-08-17T00:47:24.145Z,0
2018-08-17T00:48:04.790Z,0
2018-08-17T00:48:45.275Z,0
2018-08-17T00:49:25.848Z,0
2018-08-17T00:50:06.424Z,0
2018-08-17T00:50:46.989Z,0
2018-08-17T00:51:27.558Z,0
2018-08-17T00:52:08.137Z,0
2018-08-17T00:52:48.737Z,0
2018-08-17T00:53:29.291Z,0
2018-08-17T00:54:09.864Z,0
2018-08-17T00:54:50.431Z,0
2018-08-17T00:55:31.013Z,0
2018-08-17T00:56:11.581Z,0
2018-08-17T00:56:52.149Z,0
2018-08-17T00:57:32.720Z,0
2018-08-17T00:58:13.289Z,0
2018-08-17T00:58:53.857Z,0
2018-08-17T00:59:34.420Z,0
2018-08-17T01:00:14.994Z,0
2018-08-17T01:00:55.577Z,0
2018-08-17T01:01:36.138Z,0
2018-08-17T01:02:16.710Z,0
2018-08-17T01:02:57.263Z,0
2018-08-17T01:03:37.825Z,0
2018-08-17T01:04:18.397Z,0
2018-08-17T01:04:58.958Z,0
2018-08-17T01:05:39.518Z,0
2018-08-17T01:06:20.099Z,0
2018-08-17T01:07:00.661Z,0
2018-08-17T01:07:41.224Z,0
2018-08-17T01:08:21.790Z,0
2018-08-17T01:09:02.363Z,0
2018-08-17T01:09:42.944Z,0
2018-08-17T01:10:23.512Z,0
2018-08-17T01:11:04.124Z,0
2018-08-17T01:11:44.737Z,0
2018-08-17T01:12:25.304Z,0
2018-08-17T01:13:05.877Z,0
2018-08-17T01:13:46.439Z,0
2018-08-17T01:14:26.994Z,0
2018-08-17T01:15:07.572Z,0
2018-08-17T01:15:48.153Z,0
2018-08-17T01:16:28.713Z,0
2018-08-17T01:17:09.283Z,0
2018-08-17T01:17:49.837Z,0
2018-08-17T01:18:30.412Z,0
2018-08-17T01:19:10.978Z,0
2018-08-17T01:19:51.529Z,0
2018-08-17T01:20:32.101Z,0
2018-08-17T01:21:12.668Z,0
2018-08-17T01:21:53.225Z,0
2018-08-17T01:22:33.831Z,0
2018-08-17T01:23:14.373Z,0
2018-08-17T01:23:54.927Z,0
2018-08-17T01:24:35.517Z,0
2018-08-17T01:25:16.104Z,0
2018-08-17T01:25:56.665Z,0
2018-08-17T01:26:37.224Z,0
2018-08-17T01:27:17.785Z,0
2018-08-17T01:27:58.348Z,0
2018-08-17T01:28:38.940Z,0
2018-08-17T01:29:19.488Z,0
2018-08-17T01:30:00.058Z,0
2018-08-17T01:30:40.626Z,0
2018-08-17T01:31:21.192Z,0
2018-08-17T01:32:01.787Z,0
2018-08-17T01:32:42.346Z,0
2018-08-17T01:33:22.901Z,0
2018-08-17T01:34:03.472Z,0
2018-08-17T01:34:44.025Z,0
2018-08-17T01:35:24.577Z,0
2018-08-17T01:36:05.133Z,0
2018-08-17T01:36:45.678Z,0
2018-08-17T01:37:26.237Z,0
2018-08-17T01:38:06.817Z,0
2018-08-17T01:38:47.409Z,0
2018-08-17T01:39:27.982Z,0
2018-08-17T01:40:08.568Z,0
2018-08-17T01:40:49.120Z,0
2018-08-17T01:41:29.707Z,0
2018-08-17T01:42:10.284Z,0
2018-08-17T01:42:50.853Z,0
2018-08-17T01:43:31.419Z,0
2018-08-17T01:44:11.982Z,0
2018-08-17T01:44:52.542Z,0
2018-08-17T01:45:33.111Z,0
2018-08-17T01:46:13.680Z,0
2018-08-17T01:46:54.244Z,0
2018-08-17T01:47:34.808Z,0
2018-08-17T01:48:15.376Z,0
2018-08-17T01:48:55.958Z,0
2018-08-17T01:49:36.518Z,0
2018-08-17T01:50:17.069Z,0
2018-08-17T01:50:57.630Z,0
2018-08-17T01:51:38.246Z,0
2018-08-17T01:52:18.829Z,0
2018-08-17T01:52:59.390Z,0
2018-08-17T01:53:39.956Z,0
2018-08-17T01:54:20.524Z,0
2018-08-17T01:55:01.089Z,0
2018-08-17T01:55:41.665Z,0
2018-08-17T01:56:22.227Z,0
2018-08-17T01:57:02.799Z,0
2018-08-17T01:57:43.369Z,0
2018-08-17T01:58:23.940Z,0
2018-08-17T01:59:04.494Z,0
2018-08-17T01:59:45.068Z,0
2018-08-17T02:00:25.662Z,0
2018-08-17T02:01:06.222Z,0
2018-08-17T02:01:46.814Z,0
2018-08-17T02:02:27.391Z,0
2018-08-17T02:03:07.958Z,0
2018-08-17T02:03:48.517Z,0
2018-08-17T02:04:29.083Z,0
2018-08-17T02:05:09.676Z,0
2018-08-17T02:05:50.259Z,0
2018-08-17T02:06:30.839Z,0
2018-08-17T02:07:11.418Z,0
2018-08-17T02:07:51.976Z,0
2018-08-17T02:08:32.588Z,0
2018-08-17T02:09:13.211Z,0
2018-08-17T02:09:53.791Z,0
2018-08-17T02:10:34.362Z,0
2018-08-17T02:11:14.927Z,0
2018-08-17T02:11:55.490Z,0
2018-08-17T02:12:36.058Z,0
2018-08-17T02:13:16.623Z,0
2018-08-17T02:13:57.223Z,0
2018-08-17T02:14:37.879Z,0
2018-08-17T02:15:18.416Z,0
2018-08-17T02:15:58.956Z,0
2018-08-17T02:16:39.521Z,0
2018-08-17T02:17:20.094Z,0
2018-08-17T02:18:00.653Z,0
2018-08-17T02:18:41.215Z,0
2018-08-17T02:19:21.773Z,0
2018-08-17T02:20:02.378Z,0
2018-08-17T02:20:42.947Z,0
2018-08-17T02:21:23.496Z,0
2018-08-17T02:22:04.061Z,0
2018-08-17T02:22:44.638Z,0
2018-08-17T02:23:25.216Z,0
2018-08-17T02:24:05.784Z,0
2018-08-17T02:24:46.348Z,0
2018-08-17T02:25:26.904Z,0
2018-08-17T02:26:07.461Z,0
2018-08-17T02:26:48.029Z,0
2018-08-17T02:27:28.588Z,0
2018-08-17T02:28:09.164Z,0
2018-08-17T02:28:49.742Z,0
2018-08-17T02:29:30.300Z,0
2018-08-17T02:30:10.889Z,0
2018-08-17T02:30:51.503Z,0
2018-08-17T02:31:32.066Z,0
2018-08-17T02:32:12.644Z,0
2018-08-17T02:32:53.266Z,0
2018-08-17T02:33:33.811Z,0
2018-08-17T02:34:14.386Z,0
2018-08-17T02:34:54.979Z,0
2018-08-17T02:35:35.546Z,0
2018-08-17T02:36:16.105Z,0
2018-08-17T02:36:56.692Z,0
2018-08-17T02:37:37.264Z,0
2018-08-17T02:38:17.812Z,0
2018-08-17T02:38:58.382Z,0
2018-08-17T02:39:39.051Z,0
2018-08-17T02:40:19.619Z,0
2018-08-17T02:41:00.185Z,0
2018-08-17T02:41:40.785Z,0
2018-08-17T02:42:21.301Z,0
2018-08-17T02:43:01.891Z,0
2018-08-17T02:43:42.464Z,0
2018-08-17T02:44:23.022Z,0
2018-08-17T02:45:03.594Z,0
2018-08-17T02:45:44.161Z,0
2018-08-17T02:46:24.741Z,0
2018-08-17T02:47:05.321Z,0
2018-08-17T02:47:45.871Z,0
2018-08-17T02:48:26.425Z,0
2018-08-17T02:49:06.992Z,0
2018-08-17T02:49:47.554Z,0
2018-08-17T02:50:28.106Z,0
2018-08-17T02:51:08.659Z,0
2018-08-17T02:51:49.221Z,0
2018-08-17T02:52:29.791Z,0
2018-08-17T02:53:10.357Z,0
2018-08-17T02:53:50.946Z,0
2018-08-17T02:54:31.472Z,0
2018-08-17T02:55:12.046Z,0
2018-08-17T02:55:52.599Z,0
2018-08-17T02:56:33.154Z,0
2018-08-17T02:57:13.722Z,0
2018-08-17T02:57:54.301Z,0
2018-08-17T02:58:34.884Z,0
2018-08-17T02:59:15.478Z,0
2018-08-17T02:59:56.039Z,0
2018-08-17T03:00:36.654Z,0
2018-08-17T03:01:17.229Z,0
2018-08-17T03:01:57.780Z,0
2018-08-17T03:02:38.340Z,0
2018-08-17T03:03:18.899Z,0
2018-08-17T03:03:59.489Z,0
2018-08-17T03:04:40.055Z,0
2018-08-17T03:05:20.620Z,0
2018-08-17T03:06:01.187Z,0
2018-08-17T03:06:41.741Z,0
2018-08-17T03:07:22.293Z,0
2018-08-17T03:08:02.867Z,0
2018-08-17T03:08:43.469Z,0
2018-08-17T03:09:24.057Z,0
2018-08-17T03:10:04.606Z,0
2018-08-17T03:10:45.191Z,0
2018-08-17T03:11:25.771Z,0
2018-08-17T03:12:06.325Z,0
2018-08-17T03:12:46.902Z,0
2018-08-17T03:13:27.461Z,0
2018-08-17T03:14:08.008Z,0
2018-08-17T03:14:48.569Z,0
2018-08-17T03:15:29.121Z,0
2018-08-17T03:16:09.723Z,0
2018-08-17T03:16:50.344Z,0
2018-08-17T03:17:30.927Z,0
2018-08-17T03:18:11.495Z,0
2018-08-17T03:18:52.053Z,0
2018-08-17T03:19:32.617Z,0
2018-08-17T03:20:13.183Z,0
2018-08-17T03:20:53.739Z,0
2018-08-17T03:21:34.323Z,0
2018-08-17T03:22:14.887Z,0
2018-08-17T03:22:55.433Z,0
2018-08-17T03:23:36.052Z,0
2018-08-17T03:24:16.614Z,0
2018-08-17T03:24:57.188Z,0
2018-08-17T03:25:37.739Z,0
2018-08-17T03:26:18.309Z,0
2018-08-17T03:26:58.906Z,0
2018-08-17T03:27:39.468Z,0
2018-08-17T03:28:20.044Z,0
2018-08-17T03:29:00.593Z,0
2018-08-17T03:29:41.181Z,0
2018-08-17T03:30:21.756Z,0
2018-08-17T03:31:02.331Z,0
2018-08-17T03:31:42.908Z,0
2018-08-17T03:32:23.444Z,0
2018-08-17T03:33:04.001Z,0
2018-08-17T03:33:44.562Z,0
2018-08-17T03:34:25.123Z,0
2018-08-17T03:35:05.703Z,0
2018-08-17T03:35:46.303Z,0
2018-08-17T03:36:26.874Z,0
2018-08-17T03:37:07.467Z,0
2018-08-17T03:37:48.026Z,0
2018-08-17T03:38:28.583Z,0
2018-08-17T03:39:09.153Z,0
2018-08-17T03:39:49.721Z,0
2018-08-17T03:40:30.361Z,0
2018-08-17T03:41:10.921Z,0
2018-08-17T03:41:51.490Z,0
2018-08-17T03:42:32.067Z,0
2018-08-17T03:43:12.625Z,0
2018-08-17T03:43:53.217Z,0
2018-08-17T03:44:33.785Z,0
2018-08-17T03:45:14.352Z,0
2018-08-17T03:45:54.911Z,0
2018-08-17T03:46:35.474Z,0
2018-08-17T03:47:16.027Z,0
2018-08-17T03:47:56.649Z,0
2018-08-17T03:48:37.206Z,0
2018-08-17T03:49:17.784Z,0
2018-08-17T03:49:58.349Z,0
2018-08-17T03:50:38.908Z,0
2018-08-17T03:51:19.466Z,0
2018-08-17T03:52:00.068Z,0
2018-08-17T03:52:40.636Z,0
2018-08-17T03:53:21.196Z,0
2018-08-17T03:54:01.767Z,0
2018-08-17T03:54:43.045Z,0
2018-08-17T03:55:23.515Z,0
2018-08-17T03:56:04.098Z,0
2018-08-17T03:56:44.807Z,0
2018-08-17T03:57:26.356Z,0
2018-08-17T03:58:06.944Z,5
2018-08-17T03:58:47.506Z,5
2018-08-17T03:59:29.057Z,5
2018-08-17T04:00:09.637Z,5
2018-08-17T04:00:50.216Z,5
2018-08-17T04:01:31.033Z,5
2018-08-17T04:02:11.770Z,5
2018-08-17T04:02:52.337Z,5
2018-08-17T04:03:32.914Z,5
2018-08-17T04:04:13.507Z,5
2018-08-17T04:04:54.093Z,5
2018-08-17T04:05:34.774Z,5
2018-08-17T04:06:15.402Z,5
2018-08-17T04:06:55.985Z,5
2018-08-17T04:07:36.551Z,5
2018-08-17T04:08:17.108Z,10
2018-08-17T04:08:57.681Z,10
2018-08-17T04:09:38.285Z,10
2018-08-17T04:10:18.844Z,10
2018-08-17T04:10:59.404Z,10
2018-08-17T04:11:39.965Z,10
2018-08-17T04:12:20.524Z,10
2018-08-17T04:13:01.089Z,10
2018-08-17T04:13:41.678Z,10
2018-08-17T04:14:22.242Z,10
2018-08-17T04:15:02.795Z,10
2018-08-17T04:15:43.374Z,15
2018-08-17T04:16:23.955Z,15
2018-08-17T04:17:04.518Z,15
2018-08-17T04:17:45.097Z,15
2018-08-17T04:18:25.668Z,15
2018-08-17T04:19:06.235Z,15
2018-08-17T04:19:46.814Z,15
2018-08-17T04:20:27.371Z,15
2018-08-17T04:21:07.937Z,15
2018-08-17T04:21:48.500Z,20
2018-08-17T04:22:29.073Z,20
2018-08-17T04:23:09.620Z,20
2018-08-17T04:23:50.242Z,20
2018-08-17T04:24:30.788Z,20
2018-08-17T04:25:11.348Z,20
2018-08-17T04:25:51.911Z,20
2018-08-17T04:26:32.463Z,20
2018-08-17T04:27:13.044Z,20
2018-08-17T04:27:53.613Z,25
2018-08-17T04:28:34.181Z,25
2018-08-17T04:29:14.730Z,25
2018-08-17T04:29:55.295Z,25
2018-08-17T04:30:35.892Z,25
2018-08-17T04:31:16.548Z,25
2018-08-17T04:31:57.102Z,25
2018-08-17T04:32:37.651Z,30
2018-08-17T04:33:18.206Z,30
2018-08-17T04:33:58.759Z,30
2018-08-17T04:34:39.350Z,30
2018-08-17T04:35:19.961Z,30
2018-08-17T04:36:00.487Z,30
2018-08-17T04:36:41.050Z,30
2018-08-17T04:37:21.601Z,35
2018-08-17T04:38:02.171Z,35
2018-08-17T04:38:42.744Z,35
2018-08-17T04:39:23.317Z,35
2018-08-17T04:40:03.889Z,35
2018-08-17T04:40:44.452Z,35
2018-08-17T04:41:25.025Z,40
2018-08-17T04:42:05.604Z,40
2018-08-17T04:42:46.155Z,40
2018-08-17T04:43:26.710Z,40
2018-08-17T04:44:07.271Z,40
2018-08-17T04:44:47.841Z,40
2018-08-17T04:45:28.402Z,40
2018-08-17T04:46:08.996Z,45
2018-08-17T04:46:49.570Z,45
2018-08-17T04:47:30.137Z,45
2018-08-17T04:48:10.712Z,45
2018-08-17T04:48:51.281Z,45
2018-08-17T04:49:31.846Z,50
2018-08-17T04:50:12.422Z,50
2018-08-17T04:50:53.294Z,50
2018-08-17T04:51:33.806Z,50
2018-08-17T04:52:14.418Z,50
2018-08-17T04:52:54.999Z,50
2018-08-17T04:53:35.592Z,55
2018-08-17T04:54:16.167Z,55
2018-08-17T04:54:56.857Z,55
2018-08-17T04:55:37.442Z,55
2018-08-17T04:56:17.994Z,55
2018-08-17T04:56:58.558Z,55
2018-08-17T04:57:39.132Z,55
2018-08-17T04:58:19.836Z,60
2018-08-17T04:59:00.364Z,60
2018-08-17T04:59:40.923Z,60
2018-08-17T05:00:21.492Z,60
2018-08-17T05:01:02.073Z,60
2018-08-17T05:01:42.649Z,60
2018-08-17T05:02:23.220Z,60
2018-08-17T05:03:03.775Z,65
2018-08-17T05:03:44.348Z,65
2018-08-17T05:04:24.924Z,65
2018-08-17T05:05:05.496Z,65
2018-08-17T05:05:46.062Z,65
2018-08-17T05:06:26.662Z,65
2018-08-17T05:07:07.209Z,65
2018-08-17T05:07:47.774Z,65
2018-08-17T05:08:28.335Z,70
2018-08-17T05:09:09.075Z,70
2018-08-17T05:09:49.618Z,70
2018-08-17T05:10:30.206Z,70
2018-08-17T05:11:10.770Z,70
2018-08-17T05:11:51.354Z,70
2018-08-17T05:12:31.935Z,70
2018-08-17T05:13:12.505Z,70
2018-08-17T05:13:53.075Z,75
2018-08-17T05:14:33.640Z,75
2018-08-17T05:15:14.243Z,75
2018-08-17T05:15:54.828Z,75
2018-08-17T05:16:35.397Z,75
2018-08-17T05:17:15.961Z,75
2018-08-17T05:17:56.572Z,75
2018-08-17T05:18:37.136Z,80
2018-08-17T05:19:17.707Z,80
2018-08-17T05:19:58.339Z,80
2018-08-17T05:20:38.905Z,80
2018-08-17T05:21:19.470Z,80
2018-08-17T05:22:00.034Z,80
2018-08-17T05:22:40.604Z,85
2018-08-17T05:23:21.230Z,85
2018-08-17T05:24:01.733Z,85
2018-08-17T05:24:42.299Z,85
2018-08-17T05:25:22.852Z,85
2018-08-17T05:26:03.412Z,85
2018-08-17T05:26:43.976Z,85
2018-08-17T05:27:24.597Z,90
2018-08-17T05:28:05.167Z,90
2018-08-17T05:28:45.734Z,90
2018-08-17T05:29:26.306Z,90
2018-08-17T05:30:06.873Z,90
2018-08-17T05:30:47.461Z,90
2018-08-17T05:31:28.023Z,90
2018-08-17T05:32:08.634Z,90
2018-08-17T05:32:49.217Z,95
2018-08-17T05:33:29.780Z,95
2018-08-17T05:34:10.361Z,95
2018-08-17T05:34:50.902Z,95
2018-08-17T05:35:31.466Z,95
2018-08-17T05:36:12.070Z,95
2018-08-17T05:36:52.713Z,95
2018-08-17T05:37:33.276Z,95
2018-08-17T05:38:13.845Z,100
2018-08-17T05:38:54.425Z,100
2018-08-17T05:39:34.974Z,100
2018-08-17T05:40:15.594Z,100
2018-08-17T05:40:56.153Z,100
2018-08-17T05:41:36.792Z,105
2018-08-17T05:42:17.351Z,105
2018-08-17T05:42:57.913Z,105
2018-08-17T05:43:38.487Z,105
2018-08-17T05:44:19.070Z,110
2018-08-17T05:44:59.737Z,110
2018-08-17T05:45:40.285Z,110
2018-08-17T05:46:20.825Z,110
2018-08-17T05:47:01.385Z,110
2018-08-17T05:47:41.964Z,115
2018-08-17T05:48:22.935Z,115
2018-08-17T05:49:03.479Z,115
2018-08-17T05:49:44.070Z,115
2018-08-17T05:50:26.242Z,115
2018-08-17T05:51:06.878Z,115
2018-08-17T05:51:47.464Z,120
2018-08-17T05:52:28.063Z,120
2018-08-17T05:53:08.593Z,120
2018-08-17T05:53:49.230Z,125
2018-08-17T05:54:29.861Z,125
2018-08-17T05:55:10.414Z,125
2018-08-17T05:55:50.999Z,130
2018-08-17T05:56:31.774Z,130
2018-08-17T05:57:12.347Z,135
2018-08-17T05:57:52.902Z,135
2018-08-17T05:58:33.483Z,140
2018-08-17T05:59:14.049Z,285
2018-08-17T05:59:54.636Z,550
2018-08-17T06:00:35.340Z,735
2018-08-17T06:01:15.857Z,700
2018-08-17T06:01:56.414Z,440
2018-08-17T06:02:37.085Z,225
2018-08-17T06:03:17.638Z,345
2018-08-17T06:03:58.211Z,630
2018-08-17T06:04:38.778Z,920
2018-08-17T06:05:19.329Z,1125
2018-08-17T06:05:59.904Z,1195
2018-08-17T06:06:40.481Z,1205
2018-08-17T06:07:21.279Z,1280
2018-08-17T06:08:02.091Z,1315
2018-08-17T06:08:42.696Z,1270
2018-08-17T06:09:23.422Z,1260
2018-08-17T06:10:04.140Z,1280
2018-08-17T06:10:44.713Z,1290
2018-08-17T06:11:25.475Z,1320
2018-08-17T06:12:05.903Z,1360
2018-08-17T06:12:46.950Z,1355
2018-08-17T06:13:27.916Z,1335
2018-08-17T06:14:08.508Z,1335
2018-08-17T06:14:49.109Z,1350
2018-08-17T06:15:29.678Z,1390
2018-08-17T06:16:10.247Z,1430
2018-08-17T06:16:50.799Z,1440
2018-08-17T06:17:31.371Z,1390
2018-08-17T06:18:11.938Z,1380
2018-08-17T06:18:52.511Z,1395
2018-08-17T06:19:33.070Z,1410
2018-08-17T06:20:13.700Z,1445
2018-08-17T06:20:54.246Z,1390
2018-08-17T06:21:34.829Z,1265
2018-08-17T06:22:15.428Z,1220
2018-08-17T06:22:55.984Z,1250
2018-08-17T06:23:36.585Z,1305
2018-08-17T06:24:17.910Z,1355
2018-08-17T06:24:57.729Z,1325
2018-08-17T06:25:38.333Z,1410
2018-08-17T06:26:18.885Z,1430
2018-08-17T06:26:59.469Z,1375
2018-08-17T06:29:24.404Z,1480
2018-08-17T06:30:04.962Z,1505
2018-08-17T06:30:45.805Z,1470
2018-08-17T06:31:26.557Z,1495
2018-08-17T06:32:07.176Z,1515
2018-08-17T06:32:47.755Z,1535
2018-08-17T06:33:28.354Z,1530
2018-08-17T06:34:08.937Z,1515
2018-08-17T06:34:49.549Z,1500
2018-08-17T06:35:30.147Z,1460
2018-08-17T06:36:10.810Z,1500
2018-08-17T06:36:51.326Z,1580
2018-08-17T06:37:31.993Z,1555
2018-08-17T06:38:12.488Z,1560
2018-08-17T06:38:53.100Z,1570
2018-08-17T06:39:33.849Z,1565
2018-08-17T06:40:14.435Z,1595
2018-08-17T06:40:55.013Z,1615
2018-08-17T06:41:35.582Z,1600
2018-08-17T06:42:16.166Z,1565
2018-08-17T06:42:56.732Z,1545
2018-08-17T06:43:37.341Z,1605
2018-08-17T06:44:17.940Z,1640
2018-08-17T06:45:03.227Z,1585
2018-08-17T06:45:43.869Z,1565
2018-08-17T06:46:24.436Z,1570
2018-08-17T06:47:05.038Z,1600
2018-08-17T06:47:46.289Z,1625
2018-08-17T06:48:26.865Z,1635
2018-08-17T06:49:07.449Z,1630
2018-08-17T06:49:48.380Z,1560
2018-08-17T06:50:29.295Z,1595
2018-08-17T06:51:10.024Z,1640
2018-08-17T06:51:50.498Z,1675
2018-08-17T06:52:31.081Z,1725
2018-08-17T06:53:11.689Z,1720
2018-08-17T06:53:52.766Z,1655
2018-08-17T06:54:33.260Z,1670
2018-08-17T06:55:13.894Z,1640
2018-08-17T06:55:54.519Z,1605
2018-08-17T06:56:35.263Z,1615
2018-08-17T06:57:16.174Z,1530
2018-08-17T06:57:57.041Z,1465
2018-08-17T06:58:37.653Z,1495
2018-08-17T06:59:18.802Z,1465
2018-08-17T06:59:59.628Z,1535
2018-08-17T07:00:40.249Z,1555
2018-08-17T07:01:21.193Z,1515
2018-08-17T07:02:01.614Z,1535
2018-08-17T07:02:42.219Z,1455
2018-08-17T07:03:29.653Z,1355
2018-08-17T07:04:10.652Z,1475
2018-08-17T07:04:51.367Z,1440
2018-08-17T07:05:31.975Z,1500
2018-08-17T07:06:12.563Z,1715
2018-08-17T07:06:53.110Z,1725
2018-08-17T07:07:33.716Z,1680
2018-08-17T07:08:14.358Z,1655
2018-08-17T07:08:55.075Z,1685
2018-08-17T07:09:35.897Z,1670
2018-08-17T07:10:16.665Z,1670
2018-08-17T07:10:57.284Z,1630
2018-08-17T07:11:37.864Z,1640
2018-08-17T07:12:18.449Z,1530
2018-08-17T07:12:59.006Z,1565
2018-08-17T07:13:39.718Z,1660
2018-08-17T07:14:20.318Z,1645
2018-08-17T07:15:00.940Z,1660
2018-08-17T07:15:41.489Z,1605
2018-08-17T07:16:22.080Z,1535
2018-08-17T07:17:02.651Z,1490
2018-08-17T07:17:43.240Z,1470
2018-08-17T07:18:23.816Z,1470
2018-08-17T07:19:04.389Z,1560
2018-08-17T07:19:44.965Z,1590
2018-08-17T07:20:25.531Z,1520
2018-08-17T07:21:06.108Z,1540
2018-08-17T07:21:46.669Z,1575
2018-08-17T07:22:27.326Z,1545
2018-08-17T07:23:07.931Z,1570
2018-08-17T07:23:48.543Z,1520
2018-08-17T07:24:29.153Z,1445
2018-08-17T07:25:09.765Z,1390
2018-08-17T07:25:50.409Z,1315
2018-08-17T07:26:31.010Z,1290
2018-08-17T07:27:11.577Z,1230
2018-08-17T07:27:52.261Z,1155
2018-08-17T07:28:32.751Z,1140
2018-08-17T07:29:13.310Z,1065
2018-08-17T07:29:53.923Z,1005
2018-08-17T07:30:34.509Z,945
2018-08-17T07:31:15.149Z,880
2018-08-17T07:31:55.849Z,830
2018-08-17T07:32:36.603Z,790
2018-08-17T07:33:17.180Z,745
2018-08-17T07:33:57.770Z,710
2018-08-17T07:34:38.337Z,685
2018-08-17T07:35:18.957Z,675
2018-08-17T07:35:59.552Z,655
2018-08-17T07:36:40.141Z,630
2018-08-17T07:37:20.961Z,610
2018-08-17T07:38:01.545Z,605
2018-08-17T07:38:42.129Z,600
2018-08-17T07:39:22.763Z,600
2018-08-17T07:40:03.348Z,605
2018-08-17T07:40:43.959Z,615
2018-08-17T07:41:24.580Z,610
2018-08-17T07:42:05.180Z,580
2018-08-17T07:42:45.755Z,590
2018-08-17T07:43:26.754Z,605
2018-08-17T07:44:07.326Z,590
2018-08-17T07:44:47.896Z,555
2018-08-17T07:45:28.476Z,535
2018-08-17T07:46:09.066Z,570
2018-08-17T07:46:49.657Z,585
2018-08-17T07:47:30.222Z,590
2018-08-17T07:48:10.907Z,585
2018-08-17T07:48:51.556Z,575
2018-08-17T07:49:32.141Z,575
2018-08-17T07:50:12.714Z,575
2018-08-17T07:50:53.293Z,585
2018-08-17T07:51:33.907Z,575
2018-08-17T07:52:14.493Z,570
2018-08-17T07:52:55.074Z,570
2018-08-17T07:53:35.686Z,565
2018-08-17T07:54:16.340Z,575
2018-08-17T07:54:56.891Z,570
2018-08-17T07:55:37.496Z,565
2018-08-17T07:56:18.074Z,555
2018-08-17T07:56:58.718Z,555
2018-08-17T07:57:39.276Z,555
2018-08-17T07:58:19.829Z,550
2018-08-17T07:59:00.452Z,545
2018-08-17T07:59:41.037Z,540
2018-08-17T08:00:21.607Z,545
2018-08-17T08:01:02.178Z,555
2018-08-17T08:01:42.770Z,555
2018-08-17T08:02:23.337Z,555
2018-08-17T08:03:03.920Z,550
2018-08-17T08:03:44.557Z,535
2018-08-17T08:04:25.176Z,530
2018-08-17T08:05:05.739Z,525
2018-08-17T08:05:46.328Z,525
2018-08-17T08:06:26.930Z,520
2018-08-17T08:07:07.565Z,510
2018-08-17T08:07:48.336Z,490
2018-08-17T08:08:28.960Z,465
2018-08-17T08:09:09.536Z,450
2018-08-17T08:09:50.304Z,435
2018-08-17T08:10:30.934Z,425
2018-08-17T08:11:11.706Z,410
2018-08-17T08:11:52.192Z,405
2018-08-17T08:12:32.792Z,410
2018-08-17T08:13:13.378Z,400
2018-08-17T08:13:53.977Z,400
2018-08-17T08:14:34.567Z,390
2018-08-17T08:15:15.188Z,385
2018-08-17T08:15:55.822Z,370
2018-08-17T08:16:36.408Z,380
2018-08-17T08:17:16.986Z,370
2018-08-17T08:17:57.585Z,370
2018-08-17T08:18:38.262Z,370
2018-08-17T08:19:18.831Z,360
2018-08-17T08:19:59.405Z,360
2018-08-17T08:20:39.983Z,355
2018-08-17T08:21:20.581Z,340
2018-08-17T08:22:01.413Z,345
2018-08-17T08:22:42.121Z,345
2018-08-17T08:23:22.980Z,340
2018-08-17T08:24:03.841Z,340
2018-08-17T08:24:45.310Z,330
2018-08-17T08:25:25.940Z,330
2018-08-17T08:26:06.663Z,325
2018-08-17T08:26:47.133Z,320
2018-08-17T08:27:27.861Z,315
2018-08-17T08:28:08.445Z,310
2018-08-17T08:28:49.056Z,305
2018-08-17T08:29:29.618Z,300
2018-08-17T08:30:10.243Z,300
2018-08-17T08:30:50.841Z,295
2018-08-17T08:31:31.433Z,290
2018-08-17T08:32:12.027Z,295
2018-08-17T08:32:52.610Z,290
2018-08-17T08:33:33.337Z,280
2018-08-17T08:34:13.995Z,275
2018-08-17T08:34:54.549Z,275
2018-08-17T08:35:35.159Z,270
2018-08-17T08:36:15.765Z,265
2018-08-17T08:36:56.336Z,260
2018-08-17T08:37:36.940Z,260
2018-08-17T08:38:17.510Z,255
2018-08-17T08:38:58.145Z,255
2018-08-17T08:39:38.722Z,255
2018-08-17T08:40:19.453Z,250
2018-08-17T08:41:00.016Z,250
2018-08-17T08:41:40.611Z,245
2018-08-17T08:42:21.413Z,240
2018-08-17T08:43:02.040Z,235
2018-08-17T08:43:42.598Z,235
2018-08-17T08:44:23.195Z,230
2018-08-17T08:45:03.799Z,230
2018-08-17T08:45:44.386Z,235
2018-08-17T08:46:24.927Z,220
2018-08-17T08:47:05.554Z,220
2018-08-17T08:47:46.226Z,215
2018-08-17T08:48:26.768Z,215
2018-08-17T08:49:07.462Z,215
2018-08-17T08:49:48.014Z,215
2018-08-17T08:50:28.592Z,215
2018-08-17T08:51:09.212Z,215
2018-08-17T08:51:49.936Z,210
2018-08-17T08:52:30.465Z,210
2018-08-17T08:53:11.072Z,210
2018-08-17T08:53:51.685Z,205
2018-08-17T08:54:32.258Z,205
2018-08-17T08:55:12.874Z,205
2018-08-17T08:55:53.494Z,205
2018-08-17T08:56:34.050Z,200
2018-08-17T08:57:14.746Z,200
2018-08-17T08:57:55.322Z,200
2018-08-17T08:58:35.949Z,200
2018-08-17T08:59:16.515Z,200
2018-08-17T08:59:57.133Z,195
2018-08-17T09:00:37.780Z,195
2018-08-17T09:01:18.455Z,190
2018-08-17T09:01:59.059Z,190
2018-08-17T09:02:39.628Z,185
2018-08-17T09:03:20.227Z,185
2018-08-17T09:04:00.897Z,185
2018-08-17T09:04:41.532Z,180
2018-08-17T09:05:22.194Z,175
2018-08-17T09:06:02.800Z,175
2018-08-17T09:06:43.410Z,175
2018-08-17T09:07:24.045Z,180
2018-08-17T09:08:04.659Z,180
2018-08-17T09:08:45.214Z,180
2018-08-17T09:09:26.137Z,180
2018-08-17T09:10:06.752Z,180
2018-08-17T09:10:47.469Z,180
2018-08-17T09:11:28.041Z,175
2018-08-17T09:12:08.597Z,175
2018-08-17T09:12:49.216Z,175
2018-08-17T09:13:29.818Z,170
2018-08-17T09:14:10.446Z,170
2018-08-17T09:14:51.019Z,170
2018-08-17T09:15:31.587Z,170
2018-08-17T09:16:12.172Z,165
2018-08-17T09:16:52.774Z,165
2018-08-17T09:17:33.351Z,165
2018-08-17T09:18:13.959Z,165
2018-08-17T09:18:54.534Z,165
2018-08-17T09:19:35.108Z,165
2018-08-17T09:20:15.759Z,160
2018-08-17T09:20:56.305Z,160
2018-08-17T09:21:36.897Z,160
2018-08-17T09:22:17.493Z,160
2018-08-17T09:22:58.112Z,160
2018-08-17T09:23:38.896Z,160
2018-08-17T09:24:19.467Z,160
2018-08-17T09:25:00.159Z,160
2018-08-17T09:25:42.017Z,155
2018-08-17T09:26:21.650Z,155
2018-08-17T09:27:02.232Z,155
2018-08-17T09:27:42.833Z,155
2018-08-17T09:28:23.418Z,155
2018-08-17T09:29:04.067Z,155
2018-08-17T09:29:44.574Z,155
2018-08-17T09:30:25.142Z,155
2018-08-17T09:31:05.764Z,155
2018-08-17T09:31:46.319Z,155
2018-08-17T09:32:26.891Z,155
2018-08-17T09:33:07.458Z,150
2018-08-17T09:33:48.027Z,150
2018-08-17T09:34:28.582Z,155
2018-08-17T09:35:09.172Z,155
2018-08-17T09:35:49.750Z,150
2018-08-17T09:36:30.343Z,155
2018-08-17T09:37:10.918Z,150
2018-08-17T09:37:51.491Z,150